createdAt,value
2018-05-11T00:00:16.813Z,15.70
2018-05-11T00:02:53.276Z,15.53
2018-05-11T00:05:29.712Z,15.30
2018-05-11T00:08:06.851Z,15.30
2018-05-11T00:10:43.435Z,15.27
2018-05-11T00:13:19.453Z,14.13
2018-05-11T00:15:56.298Z,14.33
2018-05-11T00:18:32.456Z,13.37
2018-05-11T00:21:08.420Z,12.83
2018-05-11T00:23:44.476Z,12.23
2018-05-11T00:26:20.286Z,13.07
2018-05-11T00:28:56.218Z,12.33
2018-05-11T00:31:32.016Z,12.37
2018-05-11T00:34:08.744Z,11.90
2018-05-11T00:36:45.801Z,12.40
2018-05-11T00:39:21.644Z,10.67
2018-05-11T00:41:57.836Z,10.70
2018-05-11T00:44:34.380Z,11.57
2018-05-11T00:47:10.377Z,10.70
2018-05-11T00:49:46.422Z,11.00
2018-05-11T00:52:22.241Z,11.00
2018-05-11T00:54:58.753Z,10.70
2018-05-11T00:57:34.608Z,10.67
2018-05-11T01:00:10.777Z,10.37
2018-05-11T01:02:46.598Z,9.87
2018-05-11T01:05:22.584Z,9.77
2018-05-11T01:07:59.172Z,9.57
2018-05-11T01:10:36.489Z,9.80
2018-05-11T01:13:12.472Z,9.70
2018-05-11T01:15:48.482Z,9.23
2018-05-11T01:18:24.436Z,8.90
2018-05-11T01:21:00.424Z,9.50
2018-05-11T01:23:37.320Z,9.37
2018-05-11T01:26:13.547Z,9.20
2018-05-11T01:28:49.784Z,8.77
2018-05-11T01:31:25.720Z,9.17
2018-05-11T01:34:01.662Z,8.80
2018-05-11T01:36:37.871Z,9.00
2018-05-11T01:39:13.818Z,9.60
2018-05-11T01:41:49.642Z,8.90
2018-05-11T01:44:26.197Z,9.37
2018-05-11T01:47:02.262Z,8.30
2018-05-11T01:49:39.294Z,9.17
2018-05-11T01:52:16.446Z,8.70
2018-05-11T01:54:52.295Z,8.60
2018-05-11T01:57:28.995Z,8.80
2018-05-11T02:00:05.115Z,8.00
2018-05-11T02:02:42.187Z,8.60
2018-05-11T02:05:18.173Z,8.63
2018-05-11T02:07:55.078Z,8.93
2018-05-11T02:10:31.128Z,9.03
2018-05-11T02:13:07.043Z,9.10
2018-05-11T02:15:43.122Z,9.10
2018-05-11T02:18:22.843Z,9.63
2018-05-11T02:20:59.079Z,9.80
2018-05-11T02:23:35.041Z,8.53
2018-05-11T02:26:11.670Z,9.10
2018-05-11T02:28:47.809Z,9.30
2018-05-11T02:31:24.517Z,9.10
2018-05-11T02:34:00.592Z,8.60
2018-05-11T02:36:37.314Z,9.00
2018-05-11T02:39:13.298Z,8.27
2018-05-11T02:41:49.483Z,8.57
2018-05-11T02:44:25.723Z,8.83
2018-05-11T02:47:01.692Z,9.00
2018-05-11T02:49:37.845Z,8.50
2018-05-11T02:52:13.919Z,9.07
2018-05-11T02:54:49.919Z,9.83
2018-05-11T02:57:27.078Z,8.93
2018-05-11T03:00:03.190Z,8.97
2018-05-11T03:02:39.271Z,9.93
2018-05-11T03:05:15.306Z,9.03
2018-05-11T03:07:51.411Z,9.17
2018-05-11T03:10:27.382Z,9.33
2018-05-11T03:13:04.421Z,9.13
2018-05-11T03:15:40.861Z,10.37
2018-05-11T03:18:16.856Z,10.20
2018-05-11T03:20:53.758Z,10.40
2018-05-11T03:23:32.761Z,10.27
2018-05-11T03:26:09.057Z,10.07
2018-05-11T03:28:44.983Z,10.40
2018-05-11T03:31:21.171Z,9.77
2018-05-11T03:33:57.190Z,10.50
2018-05-11T03:36:33.224Z,10.17
2018-05-11T03:39:09.256Z,10.90
2018-05-11T03:41:45.918Z,9.83
2018-05-11T03:44:21.968Z,9.87
2018-05-11T03:46:58.550Z,10.27
2018-05-11T03:49:35.388Z,10.03
2018-05-11T03:52:11.680Z,9.50
2018-05-11T03:54:48.595Z,10.63
2018-05-11T03:57:24.770Z,10.07
2018-05-11T04:00:00.613Z,10.40
2018-05-11T04:02:47.699Z,10.40
2018-05-11T04:06:37.399Z,10.17
2018-05-11T04:09:13.471Z,10.13
2018-05-11T04:11:51.623Z,9.90
2018-05-11T04:14:27.881Z,10.37
2018-05-11T04:17:03.827Z,10.07
2018-05-11T04:19:39.735Z,9.50
2018-05-11T04:22:16.794Z,9.60
2018-05-11T04:24:53.078Z,10.23
2018-05-11T04:27:28.924Z,9.77
2018-05-11T04:30:04.877Z,9.77
2018-05-11T04:32:41.035Z,9.50
2018-05-11T04:35:17.216Z,9.87
2018-05-11T04:37:53.606Z,9.03
2018-05-11T04:40:29.460Z,9.57
2018-05-11T04:43:05.332Z,8.10
2018-05-11T04:45:42.259Z,8.60
2018-05-11T04:48:18.429Z,8.60
2018-05-11T04:50:55.683Z,8.93
2018-05-11T04:53:31.699Z,8.13
2018-05-11T04:56:07.610Z,8.00
2018-05-11T04:58:43.685Z,8.73
2018-05-11T05:01:22.396Z,8.53
2018-05-11T05:03:58.491Z,7.60
2018-05-11T05:06:35.272Z,7.97
2018-05-11T05:09:11.322Z,6.97
2018-05-11T05:11:48.194Z,7.83
2018-05-11T05:14:24.246Z,7.03
2018-05-11T05:17:00.347Z,6.40
2018-05-11T05:19:36.445Z,7.17
2018-05-11T05:22:12.407Z,6.20
2018-05-11T05:24:48.298Z,6.57
2018-05-11T05:27:27.193Z,5.60
2018-05-11T05:30:03.498Z,6.17
2018-05-11T05:32:40.402Z,6.03
2018-05-11T05:35:16.196Z,5.97
2018-05-11T05:37:52.983Z,6.27
2018-05-11T05:40:28.886Z,6.23
2018-05-11T05:43:05.674Z,6.27
2018-05-11T05:45:41.575Z,5.83
2018-05-11T05:48:17.364Z,5.67
2018-05-11T05:50:53.264Z,5.90
2018-05-11T05:53:29.303Z,6.30
2018-05-11T05:56:05.487Z,6.70
2018-05-11T05:58:42.310Z,6.03
2018-05-11T06:01:18.999Z,6.63
2018-05-11T06:03:55.873Z,6.53
2018-05-11T06:06:31.846Z,6.87
2018-05-11T06:09:08.154Z,6.67
2018-05-11T06:11:45.143Z,6.43
2018-05-11T06:14:21.895Z,6.70
2018-05-11T06:16:57.989Z,6.70
2018-05-11T06:19:34.084Z,7.53
2018-05-11T06:22:10.183Z,7.37
2018-05-11T06:24:47.042Z,7.70
2018-05-11T06:27:23.202Z,7.90
2018-05-11T06:29:59.290Z,8.20
2018-05-11T06:32:38.178Z,7.20
2018-05-11T06:35:14.045Z,7.07
2018-05-11T06:37:50.434Z,7.40
2018-05-11T06:40:26.548Z,7.90
2018-05-11T06:43:02.427Z,8.10
2018-05-11T06:45:39.180Z,8.07
2018-05-11T06:48:19.121Z,7.43
2018-05-11T06:50:57.242Z,8.13
2018-05-11T06:53:36.617Z,6.90
2018-05-11T06:56:13.831Z,6.50
2018-05-11T06:58:49.769Z,7.17
2018-05-11T07:01:25.895Z,6.87
2018-05-11T07:04:01.928Z,7.53
2018-05-11T07:06:40.911Z,6.73
2018-05-11T07:09:19.739Z,6.93
2018-05-11T07:11:58.293Z,5.93
2018-05-11T07:14:39.402Z,6.40
2018-05-11T07:17:19.090Z,6.07
2018-05-11T07:19:55.368Z,6.73
2018-05-11T07:22:32.511Z,7.77
2018-05-11T07:25:08.480Z,6.30
2018-05-11T07:27:45.229Z,6.00
2018-05-11T07:30:22.850Z,6.37
2018-05-11T07:33:00.933Z,7.00
2018-05-11T07:35:40.217Z,7.37
2018-05-11T07:38:19.089Z,6.83
2018-05-11T07:40:55.208Z,7.40
2018-05-11T07:43:31.467Z,6.80
2018-05-11T07:46:07.546Z,6.93
2018-05-11T07:48:44.745Z,7.70
2018-05-11T07:51:23.670Z,7.33
2018-05-11T07:54:03.078Z,6.90
2018-05-11T07:56:41.553Z,7.37
2018-05-11T07:59:17.723Z,7.17
2018-05-11T08:01:53.881Z,7.23
2018-05-11T08:04:29.942Z,7.17
2018-05-11T08:07:06.098Z,8.07
2018-05-11T08:09:45.034Z,7.87
2018-05-11T08:12:23.738Z,7.63
2018-05-11T08:14:59.911Z,8.23
2018-05-11T08:17:35.983Z,7.10
2018-05-11T08:20:12.558Z,7.23
2018-05-11T08:22:48.802Z,7.80
2018-05-11T08:25:27.507Z,6.90
2018-05-11T08:28:06.172Z,7.07
2018-05-11T08:30:46.370Z,6.73
2018-05-11T08:33:25.761Z,6.80
2018-05-11T08:36:02.551Z,6.80
2018-05-11T08:38:39.735Z,6.53
2018-05-11T08:41:16.847Z,6.50
2018-05-11T08:43:53.155Z,6.90
2018-05-11T08:50:05.282Z,7.70
2018-05-11T08:55:53.290Z,6.37
2018-05-11T08:58:30.891Z,8.23
2018-05-11T09:01:09.819Z,6.17
2018-05-11T09:03:47.120Z,6.33
2018-05-11T09:06:25.734Z,6.47
2018-05-11T09:09:01.955Z,5.57
2018-05-11T09:11:37.868Z,5.90
2018-05-11T09:14:15.540Z,5.77
2018-05-11T09:16:54.263Z,6.13
2018-05-11T09:19:33.599Z,6.30
2018-05-11T09:22:15.429Z,6.27
2018-05-11T09:24:54.187Z,6.47
2018-05-11T09:27:32.476Z,5.77
2018-05-11T09:30:08.731Z,6.00
2018-05-11T09:32:44.791Z,6.50
2018-05-11T09:35:20.887Z,6.10
2018-05-11T09:37:57.755Z,5.93
2018-05-11T09:40:36.494Z,5.80
2018-05-11T09:43:17.379Z,5.87
2018-05-11T09:45:58.480Z,5.97
2018-05-11T09:48:39.673Z,6.10
2018-05-11T09:51:17.817Z,5.53
2018-05-11T09:53:57.129Z,6.53
2018-05-11T09:56:36.921Z,5.83
2018-05-11T09:59:13.352Z,6.33
2018-05-11T10:01:53.394Z,6.10
2018-05-11T10:04:32.287Z,6.97
2018-05-11T10:07:08.468Z,6.03
2018-05-11T10:09:44.682Z,6.17
2018-05-11T10:12:21.455Z,6.83
2018-05-11T10:15:00.521Z,6.20
2018-05-11T10:17:40.283Z,5.90
2018-05-11T10:20:18.988Z,6.33
2018-05-11T10:22:55.276Z,5.97
2018-05-11T10:25:31.448Z,5.77
2018-05-11T10:28:07.477Z,7.33
2018-05-11T10:30:44.535Z,8.13
2018-05-11T10:33:22.672Z,6.20
2018-05-11T10:36:01.971Z,6.50
2018-05-11T10:38:41.431Z,6.37
2018-05-11T10:41:21.850Z,6.83
2018-05-11T10:44:01.301Z,9.77
2018-05-11T10:46:38.929Z,10.17
2018-05-11T10:49:26.808Z,10.03
2018-05-11T10:52:07.820Z,8.87
2018-05-11T10:54:47.423Z,8.57
2018-05-11T10:57:28.303Z,8.43
2018-05-11T11:00:09.312Z,8.07
2018-05-11T11:02:48.781Z,7.90
2018-05-11T11:05:30.887Z,8.17
2018-05-11T11:08:08.680Z,7.47
2018-05-11T11:10:48.176Z,7.60
2018-05-11T11:13:27.206Z,7.53
2018-05-11T11:16:07.280Z,6.90
2018-05-11T11:18:43.555Z,6.33
2018-05-11T11:21:19.748Z,8.13
2018-05-11T11:23:55.791Z,8.93
2018-05-11T11:26:31.975Z,11.23
2018-05-11T11:29:10.669Z,12.07
2018-05-11T11:31:49.496Z,11.87
2018-05-11T11:34:28.270Z,12.20
2018-05-11T11:37:04.487Z,11.80
2018-05-11T11:39:43.095Z,10.87
2018-05-11T11:42:19.318Z,11.77
2018-05-11T11:44:55.810Z,12.13
2018-05-11T11:47:31.983Z,11.47
2018-05-11T11:50:13.928Z,9.87
2018-05-11T11:52:49.841Z,8.93
2018-05-11T11:55:26.619Z,8.60
2018-05-11T11:58:02.592Z,8.27
2018-05-11T12:00:38.850Z,10.17
2018-05-11T12:03:14.794Z,11.73
2018-05-11T12:05:53.756Z,11.80
2018-05-11T12:08:32.429Z,10.97
2018-05-11T12:11:11.912Z,12.77
2018-05-11T12:13:48.283Z,14.60
2018-05-11T12:16:24.498Z,13.53
2018-05-11T12:28:41.077Z,13.63
2018-05-11T12:38:00.302Z,11.90
2018-05-11T12:40:36.976Z,11.17
2018-05-11T12:43:13.907Z,11.13
2018-05-11T12:45:51.383Z,10.40
2018-05-11T12:48:27.558Z,9.67
2018-05-11T12:57:31.578Z,15.07
2018-05-11T13:00:07.743Z,15.63
2018-05-11T13:02:43.745Z,17.57
2018-05-11T13:05:19.820Z,16.23
2018-05-11T14:43:18.700Z,13.33
2018-05-11T15:38:03.930Z,9.37
2018-05-11T15:40:39.757Z,9.30
2018-05-11T15:43:16.301Z,8.57
2018-05-11T15:45:53.291Z,8.50
2018-05-11T15:48:29.370Z,7.80
2018-05-11T15:51:05.280Z,7.30
2018-05-11T15:53:42.299Z,8.03
2018-05-11T15:56:18.318Z,6.33
2018-05-11T15:58:55.147Z,6.17
2018-05-11T16:01:31.023Z,5.90
2018-05-11T16:04:07.031Z,5.83
2018-05-11T16:06:43.617Z,5.30
2018-05-11T16:09:20.619Z,6.13
2018-05-11T16:11:57.112Z,5.93
2018-05-11T16:14:33.454Z,4.97
2018-05-11T16:17:09.566Z,5.00
2018-05-11T16:19:45.711Z,5.13
2018-05-11T16:22:22.646Z,4.97
2018-05-11T16:24:59.190Z,4.90
2018-05-11T16:27:36.246Z,4.80
2018-05-11T16:30:12.672Z,5.27
2018-05-11T16:32:49.894Z,5.23
2018-05-11T16:35:27.362Z,5.40
2018-05-11T16:38:03.499Z,6.43
2018-05-11T16:40:39.662Z,7.13
2018-05-11T16:43:17.813Z,7.07
2018-05-11T16:45:54.905Z,7.50
2018-05-11T16:48:31.584Z,6.37
2018-05-11T16:51:07.758Z,6.67
2018-05-11T16:53:44.191Z,6.40
2018-05-11T16:56:20.542Z,6.73
2018-05-11T16:58:56.779Z,6.40
2018-05-11T17:01:32.865Z,6.53
2018-05-11T17:04:09.716Z,7.30
2018-05-11T17:06:46.141Z,7.70
2018-05-11T17:09:22.533Z,7.23
2018-05-11T17:11:59.161Z,7.07
2018-05-11T17:14:35.360Z,6.60
2018-05-11T17:17:12.057Z,7.33
2018-05-11T17:19:48.391Z,8.57
2018-05-11T17:22:24.956Z,9.03
2018-05-11T17:25:01.851Z,9.03
2018-05-11T17:27:38.738Z,9.77
2018-05-11T17:30:14.855Z,10.10
2018-05-11T17:32:51.455Z,10.30
2018-05-11T17:35:28.095Z,10.10
2018-05-11T17:38:04.276Z,10.00
2018-05-11T17:40:40.346Z,9.97
2018-05-11T17:43:16.370Z,9.70
2018-05-11T17:45:52.624Z,10.17
2018-05-11T17:48:29.102Z,10.07
2018-05-11T17:51:05.072Z,10.37
2018-05-11T17:53:41.239Z,9.90
2018-05-11T17:56:18.259Z,10.23
2018-05-11T17:58:54.610Z,10.23
2018-05-11T18:01:30.874Z,10.33
2018-05-11T18:04:06.879Z,10.00
2018-05-11T18:06:42.934Z,8.87
2018-05-11T18:09:18.909Z,8.73
2018-05-11T18:11:55.895Z,9.90
2018-05-11T18:14:32.826Z,9.43
2018-05-11T18:17:09.681Z,10.10
2018-05-11T18:19:46.088Z,9.30
2018-05-11T18:22:22.452Z,9.63
2018-05-11T18:24:58.546Z,10.00
2018-05-11T18:27:35.108Z,9.80
2018-05-11T18:30:11.228Z,10.33
2018-05-11T18:32:47.439Z,9.20
2018-05-11T18:35:23.982Z,9.57
2018-05-11T18:37:59.969Z,10.10
2018-05-11T18:40:36.847Z,9.53
2018-05-11T18:43:13.216Z,10.10
2018-05-11T18:45:49.280Z,10.07
2018-05-11T18:48:25.354Z,9.67
2018-05-11T18:51:01.564Z,10.00
2018-05-11T18:53:38.075Z,9.50
2018-05-11T18:56:14.483Z,10.00
2018-05-11T18:58:51.159Z,10.10
2018-05-11T19:01:27.852Z,10.43
2018-05-11T19:04:04.415Z,9.13
2018-05-11T19:09:46.895Z,9.13
2018-05-11T19:12:33.462Z,8.63
2018-05-11T19:18:07.557Z,8.70
2018-05-11T19:20:43.477Z,8.73
2018-05-11T19:23:19.919Z,8.50
2018-05-11T19:25:55.916Z,8.60
2018-05-11T19:28:31.752Z,8.53
2018-05-11T19:31:08.882Z,8.30
2018-05-11T19:33:45.709Z,8.27
2018-05-11T19:36:21.719Z,8.43
2018-05-11T19:38:57.909Z,8.73
2018-05-11T19:41:34.135Z,9.10
2018-05-11T19:44:10.955Z,8.90
2018-05-11T19:46:48.158Z,9.80
2018-05-11T19:49:24.610Z,9.37
2018-05-11T19:52:00.905Z,9.03
2018-05-11T19:54:37.114Z,10.00
2018-05-11T19:57:13.249Z,10.53
2018-05-11T19:59:49.189Z,10.00
2018-05-11T20:02:25.498Z,10.70
2018-05-11T20:05:02.952Z,10.53
2018-05-11T20:07:40.353Z,10.27
2018-05-11T20:10:16.250Z,11.53
2018-05-11T20:12:52.120Z,10.53
2018-05-11T20:15:28.602Z,10.23
2018-05-11T20:18:04.628Z,10.40
2018-05-11T20:20:40.684Z,11.00
2018-05-11T20:23:16.851Z,11.10
2018-05-11T20:25:53.062Z,11.17
2018-05-11T20:28:30.570Z,10.90
2018-05-11T20:31:06.644Z,11.53
2018-05-11T20:33:42.609Z,11.53
2018-05-11T20:36:19.533Z,10.90
2018-05-11T20:38:55.502Z,11.03
2018-05-11T20:41:31.692Z,10.37
2018-05-11T20:44:08.090Z,11.93
2018-05-11T20:46:44.705Z,11.27
2018-05-11T20:49:20.594Z,10.67
2018-05-11T20:51:57.063Z,12.00
2018-05-11T20:54:33.198Z,11.77
2018-05-11T20:57:09.143Z,11.27
2018-05-11T20:59:45.568Z,10.87
2018-05-11T21:02:21.503Z,11.47
2018-05-11T21:04:57.584Z,10.47
2018-05-11T21:07:34.150Z,11.00
2018-05-11T21:10:10.093Z,11.63
2018-05-11T21:12:46.116Z,10.30
2018-05-11T21:15:23.140Z,11.80
2018-05-11T21:17:59.285Z,12.03
2018-05-11T21:20:36.211Z,10.67
2018-05-11T21:23:12.331Z,12.00
2018-05-11T21:25:48.792Z,11.60
2018-05-11T21:28:24.808Z,11.47
2018-05-11T21:34:08.341Z,11.27
2018-05-11T21:36:45.315Z,12.47
2018-05-11T21:39:22.094Z,11.90
2018-05-11T21:41:59.181Z,12.23
2018-05-11T21:44:35.781Z,11.87
2018-05-11T21:47:12.119Z,12.40
2018-05-11T21:49:48.182Z,11.80
2018-05-11T21:52:24.121Z,12.00
2018-05-11T21:55:00.505Z,12.43
2018-05-11T21:57:36.816Z,11.80
2018-05-11T22:00:12.933Z,12.50
2018-05-11T22:02:49.302Z,11.43
2018-05-11T22:05:26.040Z,11.90
2018-05-11T22:08:02.357Z,12.33
2018-05-11T22:10:38.616Z,11.33
2018-05-11T22:13:14.567Z,11.60
2018-05-11T22:15:50.532Z,12.40
2018-05-11T22:18:27.239Z,11.80
2018-05-11T22:21:03.245Z,12.30
2018-05-11T22:23:39.141Z,12.83
2018-05-11T22:26:16.984Z,13.53
2018-05-11T22:28:53.773Z,12.57
2018-05-11T22:31:30.394Z,12.77
2018-05-11T22:34:07.756Z,12.03
2018-05-11T22:36:44.571Z,12.80
2018-05-11T22:39:20.494Z,12.00
2018-05-11T22:41:57.555Z,12.77
2018-05-11T22:44:33.609Z,12.27
2018-05-11T22:47:09.621Z,12.70
2018-05-11T22:49:46.037Z,12.00
2018-05-11T22:52:21.860Z,12.40
2018-05-11T22:54:58.149Z,13.30
2018-05-11T22:57:34.461Z,12.73
2018-05-11T23:00:10.865Z,13.43
2018-05-11T23:02:46.905Z,12.60
2018-05-11T23:05:23.891Z,13.07
2018-05-11T23:08:00.094Z,12.60
2018-05-11T23:10:36.553Z,13.93
2018-05-11T23:13:12.764Z,13.13
2018-05-11T23:15:49.327Z,12.90
2018-05-11T23:18:25.166Z,13.47
2018-05-11T23:21:01.405Z,13.70
2018-05-11T23:23:37.402Z,12.90
2018-05-11T23:26:14.164Z,14.00
2018-05-11T23:28:50.716Z,12.80
2018-05-11T23:31:26.714Z,13.40
2018-05-11T23:34:03.457Z,13.17
2018-05-11T23:36:39.453Z,13.00
2018-05-11T23:39:15.714Z,13.73
2018-05-11T23:41:52.527Z,13.53
2018-05-11T23:44:29.595Z,14.40
2018-05-11T23:47:05.743Z,13.53
2018-05-11T23:49:41.772Z,13.30
2018-05-11T23:52:18.721Z,12.90
2018-05-11T23:54:54.772Z,13.90
2018-05-11T23:57:30.731Z,13.40
